sensor_id;sensor_type;location;lat;lon;timestamp;pressure;altitude;pressure_sealevel;temperature;humidity
21357;BME280;10836;53.068;18.234;2023-06-19T00:01:08;100963.13;;;12.43;100.00
21357;BME280;10836;53.068;18.234;2023-06-19T00:03:39;100968.91;;;12.41;100.00
21357;BME280;10836;53.068;18.234;2023-06-19T00:06:07;100968.38;;;12.34;100.00
21357;BME280;10836;53.068;18.234;2023-06-19T00:08:33;100972.50;;;12.26;100.00
21357;BME280;10836;53.068;18.234;2023-06-19T00:11:01;100969.50;;;12.23;100.00
21357;BME280;10836;53.068;18.234;2023-06-19T00:13:28;100970.03;;;12.25;100.00
21357;BME280;10836;53.068;18.234;2023-06-19T00:15:55;100963.53;;;12.11;100.00
21357;BME280;10836;53.068;18.234;2023-06-19T00:18:28;100961.34;;;11.82;100.00
21357;BME280;10836;53.068;18.234;2023-06-19T00:20:55;100955.88;;;11.92;100.00
21357;BME280;10836;53.068;18.234;2023-06-19T00:23:23;100970.66;;;11.81;100.00
21357;BME280;10836;53.068;18.234;2023-06-19T00:25:50;100968.75;;;11.77;100.00
21357;BME280;10836;53.068;18.234;2023-06-19T00:28:17;100963.28;;;11.77;100.00
21357;BME280;10836;53.068;18.234;2023-06-19T00:30:47;100969.00;;;11.70;100.00
21357;BME280;10836;53.068;18.234;2023-06-19T00:33:13;100966.28;;;11.65;100.00
21357;BME280;10836;53.068;18.234;2023-06-19T00:35:41;100966.84;;;11.67;100.00
21357;BME280;10836;53.068;18.234;2023-06-19T00:38:09;100963.00;;;11.63;100.00
21357;BME280;10836;53.068;18.234;2023-06-19T00:40:36;100968.75;;;11.56;100.00
21357;BME280;10836;53.068;18.234;2023-06-19T00:43:03;100968.47;;;11.58;100.00
21357;BME280;10836;53.068;18.234;2023-06-19T00:45:30;100970.13;;;11.64;100.00
21357;BME280;10836;53.068;18.234;2023-06-19T00:47:58;100962.44;;;11.56;100.00
21357;BME280;10836;53.068;18.234;2023-06-19T00:50:28;100971.75;;;11.55;100.00
21357;BME280;10836;53.068;18.234;2023-06-19T00:52:59;100962.47;;;11.61;100.00
21357;BME280;10836;53.068;18.234;2023-06-19T00:55:29;100968.19;;;11.59;100.00
21357;BME280;10836;53.068;18.234;2023-06-19T00:58:00;100966.84;;;11.57;100.00
21357;BME280;10836;53.068;18.234;2023-06-19T01:00:27;100964.63;;;11.44;100.00
21357;BME280;10836;53.068;18.234;2023-06-19T01:02:56;100961.63;;;11.45;100.00
21357;BME280;10836;53.068;18.234;2023-06-19T01:05:24;100959.16;;;11.44;100.00
21357;BME280;10836;53.068;18.234;2023-06-19T01:08:03;100955.31;;;11.40;100.00
21357;BME280;10836;53.068;18.234;2023-06-19T01:10:37;100956.41;;;11.18;100.00
21357;BME280;10836;53.068;18.234;2023-06-19T01:13:22;100950.41;;;11.21;100.00
21357;BME280;10836;53.068;18.234;2023-06-19T01:15:54;100959.72;;;11.20;100.00
21357;BME280;10836;53.068;18.234;2023-06-19T01:18:21;100955.31;;;11.14;100.00
21357;BME280;10836;53.068;18.234;2023-06-19T01:20:49;100958.63;;;11.21;100.00
21357;BME280;10836;53.068;18.234;2023-06-19T01:23:16;100965.16;;;11.20;100.00
21357;BME280;10836;53.068;18.234;2023-06-19T01:25:43;100968.97;;;11.04;100.00
21357;BME280;10836;53.068;18.234;2023-06-19T01:28:10;100965.63;;;10.77;100.00
21357;BME280;10836;53.068;18.234;2023-06-19T01:30:41;100962.09;;;10.81;100.00
21357;BME280;10836;53.068;18.234;2023-06-19T01:33:15;100957.97;;;10.84;100.00
21357;BME280;10836;53.068;18.234;2023-06-19T01:35:46;100964.56;;;10.83;100.00
21357;BME280;10836;53.068;18.234;2023-06-19T01:38:14;100954.41;;;10.83;100.00
21357;BME280;10836;53.068;18.234;2023-06-19T01:40:41;100952.50;;;10.84;100.00
21357;BME280;10836;53.068;18.234;2023-06-19T01:43:09;100956.34;;;10.88;100.00
21357;BME280;10836;53.068;18.234;2023-06-19T01:45:37;100956.34;;;10.88;100.00
21357;BME280;10836;53.068;18.234;2023-06-19T01:48:05;100957.69;;;10.85;100.00
21357;BME280;10836;53.068;18.234;2023-06-19T01:50:32;100965.34;;;10.88;100.00
21357;BME280;10836;53.068;18.234;2023-06-19T01:52:59;100966.72;;;10.91;100.00
21357;BME280;10836;53.068;18.234;2023-06-19T01:55:27;100966.16;;;10.84;100.00
21357;BME280;10836;53.068;18.234;2023-06-19T01:57:56;100968.91;;;10.79;100.00
21357;BME280;10836;53.068;18.234;2023-06-19T02:00:24;100972.44;;;10.74;100.00
21357;BME280;10836;53.068;18.234;2023-06-19T02:02:51;100971.56;;;10.58;100.00
21357;BME280;10836;53.068;18.234;2023-06-19T02:05:18;100969.09;;;10.62;100.00
21357;BME280;10836;53.068;18.234;2023-06-19T02:07:45;100969.34;;;10.55;100.00
21357;BME280;10836;53.068;18.234;2023-06-19T02:10:15;100958.97;;;10.57;100.00
21357;BME280;10836;53.068;18.234;2023-06-19T02:12:42;100966.59;;;10.50;100.00
21357;BME280;10836;53.068;18.234;2023-06-19T02:15:09;100968.47;;;10.45;100.00
21357;BME280;10836;53.068;18.234;2023-06-19T02:17:36;100962.78;;;10.51;100.00
21357;BME280;10836;53.068;18.234;2023-06-19T02:20:04;100966.66;;;10.60;100.00
21357;BME280;10836;53.068;18.234;2023-06-19T02:22:35;100956.84;;;10.64;100.00
21357;BME280;10836;53.068;18.234;2023-06-19T02:25:02;100962.53;;;10.58;100.00
21357;BME280;10836;53.068;18.234;2023-06-19T02:27:29;100956.50;;;10.51;100.00
21357;BME280;10836;53.068;18.234;2023-06-19T02:29:58;100956.47;;;10.46;100.00
21357;BME280;10836;53.068;18.234;2023-06-19T02:32:25;100950.16;;;10.35;100.00
21357;BME280;10836;53.068;18.234;2023-06-19T02:34:54;100949.75;;;10.16;100.00
21357;BME280;10836;53.068;18.234;2023-06-19T02:37:21;100953.66;;;10.25;100.00
21357;BME280;10836;53.068;18.234;2023-06-19T02:39:48;100952.97;;;10.08;100.00
21357;BME280;10836;53.068;18.234;2023-06-19T02:42:15;100955.00;;;10.23;100.00
21357;BME280;10836;53.068;18.234;2023-06-19T02:44:42;100956.13;;;10.27;100.00
21357;BME280;10836;53.068;18.234;2023-06-19T02:47:09;100948.50;;;10.29;100.00
21357;BME280;10836;53.068;18.234;2023-06-19T02:49:38;100951.25;;;10.34;100.00
21357;BME280;10836;53.068;18.234;2023-06-19T02:52:05;100955.91;;;10.39;100.00
21357;BME280;10836;53.068;18.234;2023-06-19T02:54:32;100946.94;;;10.48;100.00
21357;BME280;10836;53.068;18.234;2023-06-19T02:56:59;100950.16;;;10.30;100.00
21357;BME280;10836;53.068;18.234;2023-06-19T02:59:26;100951.78;;;10.31;100.00
21357;BME280;10836;53.068;18.234;2023-06-19T03:01:53;100947.47;;;10.50;100.00
21357;BME280;10836;53.068;18.234;2023-06-19T03:04:20;100945.34;;;10.57;100.00
21357;BME280;10836;53.068;18.234;2023-06-19T03:06:47;100961.72;;;10.57;100.00
21357;BME280;10836;53.068;18.234;2023-06-19T03:09:15;100956.22;;;10.47;100.00
21357;BME280;10836;53.068;18.234;2023-06-19T03:11:42;100966.13;;;10.63;100.00
21357;BME280;10836;53.068;18.234;2023-06-19T03:14:09;100953.34;;;10.79;100.00
21357;BME280;10836;53.068;18.234;2023-06-19T03:16:36;100965.63;;;10.77;100.00
21357;BME280;10836;53.068;18.234;2023-06-19T03:19:04;100951.44;;;10.80;100.00
21357;BME280;10836;53.068;18.234;2023-06-19T03:21:32;100948.41;;;10.86;100.00
21357;BME280;10836;53.068;18.234;2023-06-19T03:23:59;100955.81;;;10.96;100.00
21357;BME280;10836;53.068;18.234;2023-06-19T03:26:26;100958.03;;;11.09;100.00
21357;BME280;10836;53.068;18.234;2023-06-19T03:28:58;100965.97;;;11.16;100.00
21357;BME280;10836;53.068;18.234;2023-06-19T03:31:29;100971.75;;;11.24;100.00
21357;BME280;10836;53.068;18.234;2023-06-19T03:33:56;100973.66;;;11.39;100.00
21357;BME280;10836;53.068;18.234;2023-06-19T03:36:24;100967.91;;;11.46;100.00
21357;BME280;10836;53.068;18.234;2023-06-19T03:38:53;100969.53;;;11.37;100.00
21357;BME280;10836;53.068;18.234;2023-06-19T03:41:25;100967.91;;;11.56;100.00
21357;BME280;10836;53.068;18.234;2023-06-19T03:43:54;100976.09;;;11.76;100.00
21357;BME280;10836;53.068;18.234;2023-06-19T03:46:21;100972.84;;;11.79;100.00
21357;BME280;10836;53.068;18.234;2023-06-19T03:48:48;100971.22;;;11.88;100.00
21357;BME280;10836;53.068;18.234;2023-06-19T03:51:15;100971.75;;;11.90;100.00
21357;BME280;10836;53.068;18.234;2023-06-19T03:53:42;100971.75;;;12.06;100.00
21357;BME280;10836;53.068;18.234;2023-06-19T03:56:09;100975.25;;;12.16;100.00
21357;BME280;10836;53.068;18.234;2023-06-19T03:58:36;100967.84;;;12.27;100.00
21357;BME280;10836;53.068;18.234;2023-06-19T04:01:03;100977.09;;;12.46;100.00
21357;BME280;10836;53.068;18.234;2023-06-19T04:03:31;100972.06;;;12.63;100.00
21357;BME280;10836;53.068;18.234;2023-06-19T04:05:58;100980.25;;;12.74;100.00
21357;BME280;10836;53.068;18.234;2023-06-19T04:08:26;100975.84;;;12.83;100.00
21357;BME280;10836;53.068;18.234;2023-06-19T04:10:52;100972.50;;;12.96;100.00
21357;BME280;10836;53.068;18.234;2023-06-19T04:13:20;100971.31;;;13.02;100.00
21357;BME280;10836;53.068;18.234;2023-06-19T04:15:47;100979.53;;;13.07;100.00
21357;BME280;10836;53.068;18.234;2023-06-19T04:18:18;100979.50;;;13.12;100.00
21357;BME280;10836;53.068;18.234;2023-06-19T04:20:45;100976.13;;;13.30;100.00
21357;BME280;10836;53.068;18.234;2023-06-19T04:23:13;100982.38;;;13.41;100.00
21357;BME280;10836;53.068;18.234;2023-06-19T04:25:40;100974.91;;;13.47;100.00
21357;BME280;10836;53.068;18.234;2023-06-19T04:28:07;100974.31;;;13.50;100.00
21357;BME280;10836;53.068;18.234;2023-06-19T04:30:34;100974.44;;;13.69;100.00
21357;BME280;10836;53.068;18.234;2023-06-19T04:33:01;100970.56;;;13.75;100.00
21357;BME280;10836;53.068;18.234;2023-06-19T04:35:28;100976.19;;;13.88;100.00
21357;BME280;10836;53.068;18.234;2023-06-19T04:37:55;100989.97;;;14.12;100.00
21357;BME280;10836;53.068;18.234;2023-06-19T04:40:22;100976.94;;;14.23;100.00
21357;BME280;10836;53.068;18.234;2023-06-19T04:42:49;100982.44;;;14.23;100.00
21357;BME280;10836;53.068;18.234;2023-06-19T04:45:16;100983.38;;;14.37;100.00
21357;BME280;10836;53.068;18.234;2023-06-19T04:47:43;100977.16;;;14.55;100.00
21357;BME280;10836;53.068;18.234;2023-06-19T04:50:20;100975.03;;;14.71;100.00
21357;BME280;10836;53.068;18.234;2023-06-19T04:52:49;100982.31;;;14.81;100.00
21357;BME280;10836;53.068;18.234;2023-06-19T04:55:18;100975.63;;;14.87;100.00
21357;BME280;10836;53.068;18.234;2023-06-19T04:57:45;100977.81;;;15.09;100.00
21357;BME280;10836;53.068;18.234;2023-06-19T05:00:12;100986.34;;;15.26;100.00
21357;BME280;10836;53.068;18.234;2023-06-19T05:02:41;100995.28;;;15.37;100.00
21357;BME280;10836;53.068;18.234;2023-06-19T05:05:10;100993.13;;;15.52;100.00
21357;BME280;10836;53.068;18.234;2023-06-19T05:07:38;100996.44;;;15.68;100.00
21357;BME280;10836;53.068;18.234;2023-06-19T05:10:06;100996.28;;;15.78;100.00
21357;BME280;10836;53.068;18.234;2023-06-19T05:12:35;100995.63;;;15.68;100.00
21357;BME280;10836;53.068;18.234;2023-06-19T05:15:02;100998.97;;;15.83;100.00
21357;BME280;10836;53.068;18.234;2023-06-19T05:17:29;101000.34;;;16.00;100.00
21357;BME280;10836;53.068;18.234;2023-06-19T05:19:56;101008.81;;;16.17;100.00
21357;BME280;10836;53.068;18.234;2023-06-19T05:22:24;101010.50;;;16.32;100.00
21357;BME280;10836;53.068;18.234;2023-06-19T05:24:51;101008.22;;;16.20;100.00
21357;BME280;10836;53.068;18.234;2023-06-19T05:27:18;101008.03;;;16.30;100.00
21357;BME280;10836;53.068;18.234;2023-06-19T05:29:44;101007.25;;;16.43;100.00
21357;BME280;10836;53.068;18.234;2023-06-19T05:32:12;101015.59;;;16.52;100.00
21357;BME280;10836;53.068;18.234;2023-06-19T05:34:39;101005.81;;;16.59;100.00
21357;BME280;10836;53.068;18.234;2023-06-19T05:37:06;101015.22;;;16.72;100.00
21357;BME280;10836;53.068;18.234;2023-06-19T05:39:33;101016.22;;;17.04;100.00
21357;BME280;10836;53.068;18.234;2023-06-19T05:42:00;101020.38;;;17.28;100.00
21357;BME280;10836;53.068;18.234;2023-06-19T05:44:28;101024.75;;;17.29;100.00
21357;BME280;10836;53.068;18.234;2023-06-19T05:46:55;101025.91;;;17.51;100.00
21357;BME280;10836;53.068;18.234;2023-06-19T05:49:22;101028.56;;;17.78;100.00
21357;BME280;10836;53.068;18.234;2023-06-19T05:51:49;101034.38;;;18.21;100.00
21357;BME280;10836;53.068;18.234;2023-06-19T05:54:16;101037.81;;;18.58;100.00
21357;BME280;10836;53.068;18.234;2023-06-19T05:56:44;101032.69;;;19.48;100.00
21357;BME280;10836;53.068;18.234;2023-06-19T05:59:11;101038.94;;;20.35;100.00
21357;BME280;10836;53.068;18.234;2023-06-19T06:01:41;101037.53;;;22.21;100.00
21357;BME280;10836;53.068;18.234;2023-06-19T06:04:08;101031.97;;;23.43;87.89
21357;BME280;10836;53.068;18.234;2023-06-19T06:06:36;101036.78;;;24.26;79.67
21357;BME280;10836;53.068;18.234;2023-06-19T06:09:02;101036.38;;;26.34;72.30
21357;BME280;10836;53.068;18.234;2023-06-19T06:11:30;101042.97;;;28.11;61.06
21357;BME280;10836;53.068;18.234;2023-06-19T06:13:56;101039.00;;;27.52;59.21
21357;BME280;10836;53.068;18.234;2023-06-19T06:16:23;101032.69;;;28.26;59.20
21357;BME280;10836;53.068;18.234;2023-06-19T06:18:50;101031.97;;;28.80;52.95
21357;BME280;10836;53.068;18.234;2023-06-19T06:21:17;101035.97;;;30.21;48.13
21357;BME280;10836;53.068;18.234;2023-06-19T06:23:44;101030.81;;;30.69;47.37
21357;BME280;10836;53.068;18.234;2023-06-19T06:26:12;101035.22;;;31.13;45.87
21357;BME280;10836;53.068;18.234;2023-06-19T06:28:38;101042.34;;;30.03;44.78
21357;BME280;10836;53.068;18.234;2023-06-19T06:31:06;101038.63;;;29.09;47.08
21357;BME280;10836;53.068;18.234;2023-06-19T06:33:33;101036.97;;;26.47;54.20
21357;BME280;10836;53.068;18.234;2023-06-19T06:36:01;101039.00;;;25.85;56.36
21357;BME280;10836;53.068;18.234;2023-06-19T06:38:27;101045.25;;;25.78;59.93
21357;BME280;10836;53.068;18.234;2023-06-19T06:40:54;101044.34;;;25.74;63.03
21357;BME280;10836;53.068;18.234;2023-06-19T06:43:21;101046.94;;;25.83;64.39
21357;BME280;10836;53.068;18.234;2023-06-19T06:45:49;101047.88;;;24.70;67.57
21357;BME280;10836;53.068;18.234;2023-06-19T06:48:16;101048.59;;;24.82;68.24
21357;BME280;10836;53.068;18.234;2023-06-19T06:50:43;101047.16;;;23.98;67.87
21357;BME280;10836;53.068;18.234;2023-06-19T06:53:10;101045.94;;;24.11;72.71
21357;BME280;10836;53.068;18.234;2023-06-19T06:55:37;101050.25;;;24.68;66.16
21357;BME280;10836;53.068;18.234;2023-06-19T06:58:04;101054.94;;;24.48;66.61
21357;BME280;10836;53.068;18.234;2023-06-19T07:00:32;101048.44;;;24.60;70.09
21357;BME280;10836;53.068;18.234;2023-06-19T07:02:59;101052.50;;;25.09;66.58
21357;BME280;10836;53.068;18.234;2023-06-19T07:05:26;101064.50;;;23.63;65.72
21357;BME280;10836;53.068;18.234;2023-06-19T07:07:55;101059.22;;;23.09;70.62
21357;BME280;10836;53.068;18.234;2023-06-19T07:10:22;101067.97;;;23.60;70.26
21357;BME280;10836;53.068;18.234;2023-06-19T07:12:50;101066.94;;;24.20;66.42
21357;BME280;10836;53.068;18.234;2023-06-19T07:15:18;101070.34;;;25.05;66.66
21357;BME280;10836;53.068;18.234;2023-06-19T07:17:45;101057.09;;;25.37;64.27
21357;BME280;10836;53.068;18.234;2023-06-19T07:20:14;101064.78;;;25.59;61.99
21357;BME280;10836;53.068;18.234;2023-06-19T07:22:41;101067.84;;;25.35;60.30
21357;BME280;10836;53.068;18.234;2023-06-19T07:25:11;101070.19;;;25.33;58.40
21357;BME280;10836;53.068;18.234;2023-06-19T07:27:41;101072.22;;;24.53;53.93
21357;BME280;10836;53.068;18.234;2023-06-19T07:30:09;101080.97;;;23.96;59.86
21357;BME280;10836;53.068;18.234;2023-06-19T07:32:40;101066.72;;;24.41;56.20
21357;BME280;10836;53.068;18.234;2023-06-19T07:35:07;101069.59;;;24.92;57.28
21357;BME280;10836;53.068;18.234;2023-06-19T07:37:34;101073.16;;;25.40;56.47
21357;BME280;10836;53.068;18.234;2023-06-19T07:40:02;101075.34;;;25.15;51.31
21357;BME280;10836;53.068;18.234;2023-06-19T07:42:29;101075.50;;;25.38;53.15
21357;BME280;10836;53.068;18.234;2023-06-19T07:44:56;101081.72;;;25.31;52.52
21357;BME280;10836;53.068;18.234;2023-06-19T07:47:22;101074.78;;;25.41;52.07
21357;BME280;10836;53.068;18.234;2023-06-19T07:49:49;101075.66;;;25.45;50.30
21357;BME280;10836;53.068;18.234;2023-06-19T07:52:16;101076.22;;;25.70;50.23
21357;BME280;10836;53.068;18.234;2023-06-19T07:54:57;101080.25;;;26.11;51.73
21357;BME280;10836;53.068;18.234;2023-06-19T07:57:25;101085.34;;;26.67;49.79
21357;BME280;10836;53.068;18.234;2023-06-19T07:59:54;101087.22;;;26.82;50.56
21357;BME280;10836;53.068;18.234;2023-06-19T08:02:21;101082.84;;;27.07;48.25
21357;BME280;10836;53.068;18.234;2023-06-19T08:04:48;101081.06;;;26.11;51.25
21357;BME280;10836;53.068;18.234;2023-06-19T08:07:16;101072.16;;;26.06;49.96
21357;BME280;10836;53.068;18.234;2023-06-19T08:09:43;101074.94;;;26.25;49.32
21357;BME280;10836;53.068;18.234;2023-06-19T08:12:11;101065.09;;;26.77;48.58
21357;BME280;10836;53.068;18.234;2023-06-19T08:14:38;101075.41;;;26.08;48.86
21357;BME280;10836;53.068;18.234;2023-06-19T08:17:05;101065.78;;;26.47;51.94
21357;BME280;10836;53.068;18.234;2023-06-19T08:19:33;101073.94;;;26.33;47.38
21357;BME280;10836;53.068;18.234;2023-06-19T08:22:00;101064.06;;;26.89;45.70
21357;BME280;10836;53.068;18.234;2023-06-19T08:24:27;101070.84;;;26.61;49.18
21357;BME280;10836;53.068;18.234;2023-06-19T08:26:54;101066.03;;;26.84;46.44
21357;BME280;10836;53.068;18.234;2023-06-19T08:29:21;101065.09;;;26.54;44.73
21357;BME280;10836;53.068;18.234;2023-06-19T08:31:49;101074.34;;;27.27;42.72
21357;BME280;10836;53.068;18.234;2023-06-19T08:34:16;101064.88;;;26.01;44.66
21357;BME280;10836;53.068;18.234;2023-06-19T08:36:43;101070.97;;;26.07;45.57
21357;BME280;10836;53.068;18.234;2023-06-19T08:39:10;101067.59;;;26.17;44.31
21357;BME280;10836;53.068;18.234;2023-06-19T08:41:37;101073.72;;;26.91;43.43
21357;BME280;10836;53.068;18.234;2023-06-19T08:44:05;101082.34;;;26.79;41.03
21357;BME280;10836;53.068;18.234;2023-06-19T08:46:33;101073.25;;;26.21;42.28
21357;BME280;10836;53.068;18.234;2023-06-19T08:49:01;101072.25;;;27.50;41.56
21357;BME280;10836;53.068;18.234;2023-06-19T08:51:29;101081.47;;;26.75;44.16
21357;BME280;10836;53.068;18.234;2023-06-19T08:54:04;101073.63;;;26.38;43.28
21357;BME280;10836;53.068;18.234;2023-06-19T08:56:32;101070.38;;;27.31;44.35
21357;BME280;10836;53.068;18.234;2023-06-19T09:01:37;101072.31;;;28.98;38.64
21357;BME280;10836;53.068;18.234;2023-06-19T09:04:09;101069.19;;;29.10;38.80
21357;BME280;10836;53.068;18.234;2023-06-19T09:07:07;101072.31;;;28.98;40.41
21357;BME280;10836;53.068;18.234;2023-06-19T09:09:45;101067.38;;;30.30;38.37
21357;BME280;10836;53.068;18.234;2023-06-19T09:12:15;101057.72;;;30.49;37.77
21357;BME280;10836;53.068;18.234;2023-06-19T09:14:47;101063.41;;;29.44;40.68
21357;BME280;10836;53.068;18.234;2023-06-19T09:17:20;101063.00;;;29.49;42.19
21357;BME280;10836;53.068;18.234;2023-06-19T09:19:51;101064.81;;;29.96;39.37
21357;BME280;10836;53.068;18.234;2023-06-19T09:22:20;101059.28;;;28.79;38.39
21357;BME280;10836;53.068;18.234;2023-06-19T09:24:49;101054.88;;;29.33;37.88
21357;BME280;10836;53.068;18.234;2023-06-19T09:27:17;101058.31;;;29.74;39.01
21357;BME280;10836;53.068;18.234;2023-06-19T09:29:48;101048.84;;;30.18;37.12
21357;BME280;10836;53.068;18.234;2023-06-19T09:32:22;101049.63;;;30.15;36.33
21357;BME280;10836;53.068;18.234;2023-06-19T09:34:52;101057.84;;;29.58;38.09
21357;BME280;10836;53.068;18.234;2023-06-19T09:37:26;101046.00;;;28.32;39.23
21357;BME280;10836;53.068;18.234;2023-06-19T09:40:01;101053.34;;;28.44;40.75
21357;BME280;10836;53.068;18.234;2023-06-19T09:42:38;101052.72;;;27.57;40.37
21357;BME280;10836;53.068;18.234;2023-06-19T09:45:13;101045.78;;;28.11;39.27
21357;BME280;10836;53.068;18.234;2023-06-19T09:47:46;101044.94;;;28.88;41.53
21357;BME280;10836;53.068;18.234;2023-06-19T09:50:16;101048.72;;;28.66;40.06
21357;BME280;10836;53.068;18.234;2023-06-19T09:52:49;101043.81;;;28.52;36.17
21357;BME280;10836;53.068;18.234;2023-06-19T09:55:19;101046.13;;;28.06;37.65
21357;BME280;10836;53.068;18.234;2023-06-19T09:57:46;101046.16;;;28.46;36.61
21357;BME280;10836;53.068;18.234;2023-06-19T10:00:15;101040.97;;;28.96;36.55
21357;BME280;10836;53.068;18.234;2023-06-19T10:02:46;101050.69;;;29.09;36.29
21357;BME280;10836;53.068;18.234;2023-06-19T10:05:14;101046.72;;;29.18;36.35
21357;BME280;10836;53.068;18.234;2023-06-19T10:07:43;101051.78;;;28.46;37.10
21357;BME280;10836;53.068;18.234;2023-06-19T10:10:22;101040.28;;;28.22;36.64
21357;BME280;10836;53.068;18.234;2023-06-19T10:12:50;101044.06;;;28.03;38.63
21357;BME280;10836;53.068;18.234;2023-06-19T10:15:20;101041.66;;;28.83;38.05
21357;BME280;10836;53.068;18.234;2023-06-19T10:17:50;101043.59;;;28.31;36.73
21357;BME280;10836;53.068;18.234;2023-06-19T10:20:31;101038.09;;;27.71;37.58
21357;BME280;10836;53.068;18.234;2023-06-19T10:23:03;101028.72;;;28.74;35.21
21357;BME280;10836;53.068;18.234;2023-06-19T10:25:37;101038.25;;;29.94;32.28
21357;BME280;10836;53.068;18.234;2023-06-19T10:28:16;101023.84;;;30.06;34.54
21357;BME280;10836;53.068;18.234;2023-06-19T10:30:43;101027.13;;;30.26;32.79
21357;BME280;10836;53.068;18.234;2023-06-19T10:33:10;101021.31;;;28.96;36.10
21357;BME280;10836;53.068;18.234;2023-06-19T10:35:41;101027.34;;;29.74;33.77
21357;BME280;10836;53.068;18.234;2023-06-19T10:38:08;101026.63;;;29.99;34.03
21357;BME280;10836;53.068;18.234;2023-06-19T10:40:36;101017.34;;;29.08;35.81
21357;BME280;10836;53.068;18.234;2023-06-19T10:43:04;101015.38;;;29.16;35.12
21357;BME280;10836;53.068;18.234;2023-06-19T10:45:32;101034.88;;;29.49;36.77
21357;BME280;10836;53.068;18.234;2023-06-19T10:48:01;101020.94;;;29.01;36.83
21357;BME280;10836;53.068;18.234;2023-06-19T10:50:34;101023.63;;;29.45;33.98
21357;BME280;10836;53.068;18.234;2023-06-19T10:53:04;101027.72;;;29.62;35.28
21357;BME280;10836;53.068;18.234;2023-06-19T10:55:31;101028.88;;;29.54;35.18
21357;BME280;10836;53.068;18.234;2023-06-19T10:58:01;101020.97;;;29.85;32.02
21357;BME280;10836;53.068;18.234;2023-06-19T11:00:30;101027.88;;;30.05;33.26
21357;BME280;10836;53.068;18.234;2023-06-19T11:02:58;101027.53;;;29.30;37.87
21357;BME280;10836;53.068;18.234;2023-06-19T11:05:27;101023.34;;;28.52;35.64
21357;BME280;10836;53.068;18.234;2023-06-19T11:07:58;101020.81;;;28.87;35.48
21357;BME280;10836;53.068;18.234;2023-06-19T11:10:27;101014.13;;;29.96;34.28
21357;BME280;10836;53.068;18.234;2023-06-19T11:12:56;101012.63;;;30.45;32.44
21357;BME280;10836;53.068;18.234;2023-06-19T11:15:34;101024.50;;;29.67;33.01
21357;BME280;10836;53.068;18.234;2023-06-19T11:18:02;101013.97;;;28.37;34.75
21357;BME280;10836;53.068;18.234;2023-06-19T11:20:29;101020.88;;;28.94;33.71
21357;BME280;10836;53.068;18.234;2023-06-19T11:22:59;101016.38;;;29.48;35.66
21357;BME280;10836;53.068;18.234;2023-06-19T11:25:39;101011.88;;;30.66;32.66
21357;BME280;10836;53.068;18.234;2023-06-19T11:28:14;101011.66;;;29.66;33.75
21357;BME280;10836;53.068;18.234;2023-06-19T11:30:41;101016.50;;;29.00;33.88
21357;BME280;10836;53.068;18.234;2023-06-19T11:33:21;101013.34;;;28.58;35.14
21357;BME280;10836;53.068;18.234;2023-06-19T11:35:50;101016.78;;;28.00;37.61
21357;BME280;10836;53.068;18.234;2023-06-19T11:38:20;101010.75;;;28.38;35.94
21357;BME280;10836;53.068;18.234;2023-06-19T11:40:49;101020.63;;;28.66;35.16
21357;BME280;10836;53.068;18.234;2023-06-19T11:46:16;101011.03;;;30.48;35.77
21357;BME280;10836;53.068;18.234;2023-06-19T11:48:46;101017.50;;;30.66;32.97
21357;BME280;10836;53.068;18.234;2023-06-19T11:57:59;101003.97;;;28.87;35.44
21357;BME280;10836;53.068;18.234;2023-06-19T12:03:10;101009.88;;;29.33;34.69
21357;BME280;10836;53.068;18.234;2023-06-19T12:05:38;101001.47;;;27.94;36.96
21357;BME280;10836;53.068;18.234;2023-06-19T12:08:05;100998.03;;;28.52;37.69
21357;BME280;10836;53.068;18.234;2023-06-19T12:13:40;101005.28;;;29.98;32.74
21357;BME280;10836;53.068;18.234;2023-06-19T12:16:10;100997.63;;;29.04;37.34
21357;BME280;10836;53.068;18.234;2023-06-19T12:19:06;100994.53;;;29.20;35.46
21357;BME280;10836;53.068;18.234;2023-06-19T12:21:33;100995.47;;;28.32;35.67
21357;BME280;10836;53.068;18.234;2023-06-19T12:27:12;100983.53;;;28.94;37.16
21357;BME280;10836;53.068;18.234;2023-06-19T12:29:39;100988.88;;;28.62;35.97
21357;BME280;10836;53.068;18.234;2023-06-19T12:32:25;100991.59;;;28.47;37.06
21357;BME280;10836;53.068;18.234;2023-06-19T12:34:53;100994.19;;;27.89;37.99
21357;BME280;10836;53.068;18.234;2023-06-19T12:37:21;100979.84;;;27.98;36.67
21357;BME280;10836;53.068;18.234;2023-06-19T12:43:03;100984.69;;;28.01;37.06
21357;BME280;10836;53.068;18.234;2023-06-19T12:48:38;100976.56;;;27.89;36.15
21357;BME280;10836;53.068;18.234;2023-06-19T12:51:05;100971.25;;;29.23;35.77
21357;BME280;10836;53.068;18.234;2023-06-19T12:53:32;100973.22;;;30.31;34.78
21357;BME280;10836;53.068;18.234;2023-06-19T12:56:00;100982.38;;;29.89;33.42
21357;BME280;10836;53.068;18.234;2023-06-19T12:58:30;100975.28;;;29.26;34.22
21357;BME280;10836;53.068;18.234;2023-06-19T13:03:59;100967.47;;;29.95;32.78
21357;BME280;10836;53.068;18.234;2023-06-19T13:06:27;100963.47;;;29.96;34.15
21357;BME280;10836;53.068;18.234;2023-06-19T13:09:19;100971.97;;;30.78;35.33
21357;BME280;10836;53.068;18.234;2023-06-19T13:11:46;100965.97;;;30.26;33.71
21357;BME280;10836;53.068;18.234;2023-06-19T13:14:13;100971.19;;;30.17;33.78